sensor_id;sensor_type;location;lat;lon;timestamp;P1;durP1;ratioP1;P2;durP2;ratioP2
52158;SDS011;38145;53.182;6.284;2022-08-19T00:00:15;8.65;;;7.85;;
52158;SDS011;38145;53.182;6.284;2022-08-19T00:02:42;10.25;;;8.40;;
52158;SDS011;38145;53.182;6.284;2022-08-19T00:05:09;7.90;;;7.20;;
52158;SDS011;38145;53.182;6.284;2022-08-19T00:07:36;7.38;;;6.65;;
52158;SDS011;38145;53.182;6.284;2022-08-19T00:10:04;5.50;;;5.00;;
52158;SDS011;38145;53.182;6.284;2022-08-19T00:12:32;4.63;;;4.20;;
52158;SDS011;38145;53.182;6.284;2022-08-19T00:14:59;5.63;;;5.13;;
52158;SDS011;38145;53.182;6.284;2022-08-19T00:17:25;7.80;;;6.38;;
52158;SDS011;38145;53.182;6.284;2022-08-19T00:19:52;10.05;;;7.18;;
52158;SDS011;38145;53.182;6.284;2022-08-19T00:22:18;9.85;;;8.13;;
52158;SDS011;38145;53.182;6.284;2022-08-19T00:24:44;11.50;;;8.65;;
52158;SDS011;38145;53.182;6.284;2022-08-19T00:27:11;9.52;;;8.00;;
52158;SDS011;38145;53.182;6.284;2022-08-19T00:29:38;9.97;;;8.30;;
52158;SDS011;38145;53.182;6.284;2022-08-19T00:32:04;7.85;;;7.05;;
52158;SDS011;38145;53.182;6.284;2022-08-19T00:34:31;5.07;;;3.55;;
52158;SDS011;38145;53.182;6.284;2022-08-19T00:36:58;6.20;;;3.53;;
52158;SDS011;38145;53.182;6.284;2022-08-19T00:39:24;4.78;;;4.38;;
52158;SDS011;38145;53.182;6.284;2022-08-19T00:41:51;11.15;;;8.63;;
52158;SDS011;38145;53.182;6.284;2022-08-19T00:44:20;8.18;;;6.38;;
52158;SDS011;38145;53.182;6.284;2022-08-19T00:46:49;4.85;;;4.45;;
52158;SDS011;38145;53.182;6.284;2022-08-19T00:49:22;6.00;;;4.30;;
52158;SDS011;38145;53.182;6.284;2022-08-19T00:54:24;5.72;;;5.13;;
52158;SDS011;38145;53.182;6.284;2022-08-19T00:56:50;6.32;;;5.68;;
52158;SDS011;38145;53.182;6.284;2022-08-19T00:59:17;5.28;;;4.78;;
52158;SDS011;38145;53.182;6.284;2022-08-19T01:01:44;5.18;;;4.68;;
52158;SDS011;38145;53.182;6.284;2022-08-19T01:04:12;5.78;;;5.03;;
52158;SDS011;38145;53.182;6.284;2022-08-19T01:06:39;5.25;;;4.30;;
52158;SDS011;38145;53.182;6.284;2022-08-19T01:11:34;4.97;;;4.47;;
52158;SDS011;38145;53.182;6.284;2022-08-19T01:14:03;8.07;;;4.80;;
52158;SDS011;38145;53.182;6.284;2022-08-19T01:16:31;7.75;;;6.70;;
52158;SDS011;38145;53.182;6.284;2022-08-19T01:18:58;7.47;;;6.07;;
52158;SDS011;38145;53.182;6.284;2022-08-19T01:24:02;7.30;;;6.60;;
52158;SDS011;38145;53.182;6.284;2022-08-19T01:26:29;7.22;;;5.90;;
52158;SDS011;38145;53.182;6.284;2022-08-19T01:28:56;8.35;;;6.88;;
52158;SDS011;38145;53.182;6.284;2022-08-19T01:31:25;6.95;;;6.13;;
52158;SDS011;38145;53.182;6.284;2022-08-19T01:33:56;9.68;;;7.93;;
52158;SDS011;38145;53.182;6.284;2022-08-19T01:36:25;10.50;;;8.68;;
52158;SDS011;38145;53.182;6.284;2022-08-19T01:38:54;9.10;;;7.13;;
52158;SDS011;38145;53.182;6.284;2022-08-19T01:41:23;22.02;;;6.95;;
52158;SDS011;38145;53.182;6.284;2022-08-19T01:43:50;13.98;;;6.53;;
52158;SDS011;38145;53.182;6.284;2022-08-19T01:48:44;5.80;;;5.05;;
52158;SDS011;38145;53.182;6.284;2022-08-19T01:51:11;5.18;;;4.63;;
52158;SDS011;38145;53.182;6.284;2022-08-19T01:53:39;7.65;;;4.38;;
52158;SDS011;38145;53.182;6.284;2022-08-19T01:56:06;17.15;;;3.42;;
52158;SDS011;38145;53.182;6.284;2022-08-19T01:58:34;2.30;;;2.10;;
52158;SDS011;38145;53.182;6.284;2022-08-19T02:01:04;1.80;;;1.70;;
52158;SDS011;38145;53.182;6.284;2022-08-19T02:03:31;1.70;;;1.60;;
52158;SDS011;38145;53.182;6.284;2022-08-19T02:05:58;1.70;;;1.60;;
52158;SDS011;38145;53.182;6.284;2022-08-19T02:08:28;2.17;;;1.58;;
52158;SDS011;38145;53.182;6.284;2022-08-19T02:10:55;2.88;;;2.25;;
52158;SDS011;38145;53.182;6.284;2022-08-19T02:13:22;3.55;;;3.20;;
52158;SDS011;38145;53.182;6.284;2022-08-19T02:15:50;3.10;;;2.05;;
52158;SDS011;38145;53.182;6.284;2022-08-19T02:18:16;3.55;;;2.55;;
52158;SDS011;38145;53.182;6.284;2022-08-19T02:20:43;4.05;;;3.22;;
52158;SDS011;38145;53.182;6.284;2022-08-19T02:23:10;7.18;;;4.68;;
52158;SDS011;38145;53.182;6.284;2022-08-19T02:25:37;6.80;;;6.10;;
52158;SDS011;38145;53.182;6.284;2022-08-19T02:28:04;6.93;;;4.40;;
52158;SDS011;38145;53.182;6.284;2022-08-19T02:30:31;9.73;;;5.03;;
52158;SDS011;38145;53.182;6.284;2022-08-19T02:32:57;7.28;;;5.05;;
52158;SDS011;38145;53.182;6.284;2022-08-19T02:35:25;6.45;;;5.75;;
52158;SDS011;38145;53.182;6.284;2022-08-19T02:37:51;5.85;;;5.15;;
52158;SDS011;38145;53.182;6.284;2022-08-19T02:40:36;8.13;;;4.93;;
52158;SDS011;38145;53.182;6.284;2022-08-19T02:43:03;10.07;;;8.23;;
52158;SDS011;38145;53.182;6.284;2022-08-19T02:45:33;6.72;;;3.60;;
52158;SDS011;38145;53.182;6.284;2022-08-19T02:48:00;6.07;;;4.35;;
52158;SDS011;38145;53.182;6.284;2022-08-19T02:52:54;6.13;;;5.53;;
52158;SDS011;38145;53.182;6.284;2022-08-19T02:55:20;7.45;;;4.30;;
52158;SDS011;38145;53.182;6.284;2022-08-19T02:57:46;9.98;;;6.07;;
52158;SDS011;38145;53.182;6.284;2022-08-19T03:00:13;6.63;;;5.82;;
52158;SDS011;38145;53.182;6.284;2022-08-19T03:02:40;63.50;;;9.82;;
52158;SDS011;38145;53.182;6.284;2022-08-19T03:05:07;12.43;;;8.38;;
52158;SDS011;38145;53.182;6.284;2022-08-19T03:07:35;7.50;;;6.72;;
52158;SDS011;38145;53.182;6.284;2022-08-19T03:10:03;12.88;;;7.15;;
52158;SDS011;38145;53.182;6.284;2022-08-19T03:12:29;5.25;;;4.75;;
52158;SDS011;38145;53.182;6.284;2022-08-19T03:14:56;8.43;;;7.13;;
52158;SDS011;38145;53.182;6.284;2022-08-19T03:17:22;8.65;;;7.18;;
52158;SDS011;38145;53.182;6.284;2022-08-19T03:19:48;8.50;;;6.68;;
52158;SDS011;38145;53.182;6.284;2022-08-19T03:22:14;13.57;;;6.35;;
52158;SDS011;38145;53.182;6.284;2022-08-19T03:24:41;10.63;;;6.50;;
52158;SDS011;38145;53.182;6.284;2022-08-19T03:27:08;8.88;;;5.43;;
52158;SDS011;38145;53.182;6.284;2022-08-19T03:29:36;6.38;;;4.57;;
52158;SDS011;38145;53.182;6.284;2022-08-19T03:32:04;6.15;;;4.75;;
52158;SDS011;38145;53.182;6.284;2022-08-19T03:34:31;9.80;;;7.35;;
52158;SDS011;38145;53.182;6.284;2022-08-19T03:37:04;7.15;;;6.45;;
52158;SDS011;38145;53.182;6.284;2022-08-19T03:39:32;6.00;;;5.43;;
52158;SDS011;38145;53.182;6.284;2022-08-19T03:41:58;9.52;;;7.45;;
52158;SDS011;38145;53.182;6.284;2022-08-19T03:44:27;7.63;;;6.22;;
52158;SDS011;38145;53.182;6.284;2022-08-19T03:46:56;7.68;;;6.88;;
52158;SDS011;38145;53.182;6.284;2022-08-19T03:49:24;6.75;;;5.80;;
52158;SDS011;38145;53.182;6.284;2022-08-19T03:51:54;5.35;;;4.85;;
52158;SDS011;38145;53.182;6.284;2022-08-19T03:54:23;8.32;;;7.03;;
52158;SDS011;38145;53.182;6.284;2022-08-19T03:56:51;7.20;;;6.35;;
52158;SDS011;38145;53.182;6.284;2022-08-19T03:59:20;8.15;;;7.32;;
52158;SDS011;38145;53.182;6.284;2022-08-19T04:01:50;8.90;;;7.00;;
52158;SDS011;38145;53.182;6.284;2022-08-19T04:04:19;10.23;;;9.23;;
52158;SDS011;38145;53.182;6.284;2022-08-19T04:06:46;9.23;;;8.33;;
52158;SDS011;38145;53.182;6.284;2022-08-19T04:09:13;12.07;;;9.43;;
52158;SDS011;38145;53.182;6.284;2022-08-19T04:11:41;11.50;;;9.38;;
52158;SDS011;38145;53.182;6.284;2022-08-19T04:14:10;11.77;;;10.52;;
52158;SDS011;38145;53.182;6.284;2022-08-19T04:16:38;11.82;;;10.30;;
52158;SDS011;38145;53.182;6.284;2022-08-19T04:19:06;6.78;;;5.88;;
52158;SDS011;38145;53.182;6.284;2022-08-19T04:21:32;6.93;;;5.68;;
52158;SDS011;38145;53.182;6.284;2022-08-19T04:23:59;8.90;;;6.45;;
52158;SDS011;38145;53.182;6.284;2022-08-19T04:26:26;5.88;;;5.28;;
52158;SDS011;38145;53.182;6.284;2022-08-19T04:28:56;13.43;;;11.18;;
52158;SDS011;38145;53.182;6.284;2022-08-19T04:31:24;12.18;;;11.00;;
52158;SDS011;38145;53.182;6.284;2022-08-19T04:33:52;13.60;;;9.57;;
52158;SDS011;38145;53.182;6.284;2022-08-19T04:36:20;14.20;;;10.73;;
52158;SDS011;38145;53.182;6.284;2022-08-19T04:38:48;12.27;;;10.98;;
52158;SDS011;38145;53.182;6.284;2022-08-19T04:41:15;12.60;;;11.30;;
52158;SDS011;38145;53.182;6.284;2022-08-19T04:44:00;10.65;;;9.55;;
52158;SDS011;38145;53.182;6.284;2022-08-19T04:46:27;10.33;;;8.57;;
52158;SDS011;38145;53.182;6.284;2022-08-19T04:51:22;10.75;;;9.65;;
52158;SDS011;38145;53.182;6.284;2022-08-19T04:53:49;11.48;;;9.50;;
52158;SDS011;38145;53.182;6.284;2022-08-19T04:56:16;10.98;;;9.38;;
52158;SDS011;38145;53.182;6.284;2022-08-19T04:58:44;10.93;;;9.35;;
52158;SDS011;38145;53.182;6.284;2022-08-19T05:01:12;12.68;;;10.35;;
52158;SDS011;38145;53.182;6.284;2022-08-19T05:03:42;9.05;;;8.10;;
52158;SDS011;38145;53.182;6.284;2022-08-19T05:06:09;8.23;;;7.43;;
52158;SDS011;38145;53.182;6.284;2022-08-19T05:08:39;10.45;;;9.35;;
52158;SDS011;38145;53.182;6.284;2022-08-19T05:11:15;12.35;;;9.32;;
52158;SDS011;38145;53.182;6.284;2022-08-19T05:13:45;12.87;;;10.07;;
52158;SDS011;38145;53.182;6.284;2022-08-19T05:16:14;12.20;;;10.90;;
52158;SDS011;38145;53.182;6.284;2022-08-19T05:18:43;14.38;;;10.70;;
52158;SDS011;38145;53.182;6.284;2022-08-19T05:21:29;11.75;;;10.52;;
52158;SDS011;38145;53.182;6.284;2022-08-19T05:24:15;11.40;;;10.20;;
52158;SDS011;38145;53.182;6.284;2022-08-19T05:29:12;11.75;;;9.70;;
52158;SDS011;38145;53.182;6.284;2022-08-19T05:31:39;12.18;;;10.57;;
52158;SDS011;38145;53.182;6.284;2022-08-19T05:34:06;13.43;;;11.07;;
52158;SDS011;38145;53.182;6.284;2022-08-19T05:36:35;13.57;;;11.32;;
52158;SDS011;38145;53.182;6.284;2022-08-19T05:39:05;14.95;;;11.82;;
52158;SDS011;38145;53.182;6.284;2022-08-19T05:41:33;15.18;;;11.82;;
52158;SDS011;38145;53.182;6.284;2022-08-19T05:44:01;17.17;;;12.73;;
52158;SDS011;38145;53.182;6.284;2022-08-19T05:46:31;14.43;;;12.38;;
52158;SDS011;38145;53.182;6.284;2022-08-19T05:48:58;16.98;;;12.23;;
52158;SDS011;38145;53.182;6.284;2022-08-19T05:51:24;16.83;;;14.30;;
52158;SDS011;38145;53.182;6.284;2022-08-19T05:53:50;14.43;;;12.38;;
52158;SDS011;38145;53.182;6.284;2022-08-19T05:56:17;16.23;;;12.23;;
52158;SDS011;38145;53.182;6.284;2022-08-19T05:58:44;18.98;;;14.10;;
52158;SDS011;38145;53.182;6.284;2022-08-19T06:01:13;25.30;;;15.38;;
52158;SDS011;38145;53.182;6.284;2022-08-19T06:03:41;16.15;;;13.20;;
52158;SDS011;38145;53.182;6.284;2022-08-19T06:06:09;19.80;;;14.95;;
52158;SDS011;38145;53.182;6.284;2022-08-19T06:08:37;17.13;;;14.88;;
52158;SDS011;38145;53.182;6.284;2022-08-19T06:13:40;22.38;;;17.08;;
52158;SDS011;38145;53.182;6.284;2022-08-19T06:16:06;18.42;;;15.13;;
52158;SDS011;38145;53.182;6.284;2022-08-19T06:18:33;17.90;;;15.25;;
52158;SDS011;38145;53.182;6.284;2022-08-19T06:20:59;19.77;;;16.42;;
52158;SDS011;38145;53.182;6.284;2022-08-19T06:23:28;20.17;;;15.90;;
52158;SDS011;38145;53.182;6.284;2022-08-19T06:25:56;17.45;;;15.25;;
52158;SDS011;38145;53.182;6.284;2022-08-19T06:28:22;20.45;;;15.95;;
52158;SDS011;38145;53.182;6.284;2022-08-19T06:30:49;19.10;;;15.88;;
52158;SDS011;38145;53.182;6.284;2022-08-19T06:33:16;21.73;;;17.92;;
52158;SDS011;38145;53.182;6.284;2022-08-19T06:35:43;20.67;;;16.40;;
52158;SDS011;38145;53.182;6.284;2022-08-19T06:38:09;17.20;;;14.77;;
52158;SDS011;38145;53.182;6.284;2022-08-19T06:40:36;18.50;;;15.00;;
52158;SDS011;38145;53.182;6.284;2022-08-19T06:43:03;20.33;;;16.17;;
52158;SDS011;38145;53.182;6.284;2022-08-19T06:45:29;22.13;;;15.95;;
52158;SDS011;38145;53.182;6.284;2022-08-19T06:47:57;22.88;;;16.38;;
52158;SDS011;38145;53.182;6.284;2022-08-19T06:50:23;20.88;;;16.25;;
52158;SDS011;38145;53.182;6.284;2022-08-19T06:52:50;18.87;;;15.97;;
52158;SDS011;38145;53.182;6.284;2022-08-19T06:55:17;21.58;;;15.73;;
52158;SDS011;38145;53.182;6.284;2022-08-19T06:57:43;21.45;;;16.23;;
52158;SDS011;38145;53.182;6.284;2022-08-19T07:00:11;18.77;;;16.08;;
52158;SDS011;38145;53.182;6.284;2022-08-19T07:05:06;19.90;;;16.43;;
52158;SDS011;38145;53.182;6.284;2022-08-19T07:07:33;19.00;;;16.40;;
52158;SDS011;38145;53.182;6.284;2022-08-19T07:10:00;21.50;;;17.00;;
52158;SDS011;38145;53.182;6.284;2022-08-19T07:12:28;20.83;;;16.60;;
52158;SDS011;38145;53.182;6.284;2022-08-19T07:14:58;19.05;;;16.15;;
52158;SDS011;38145;53.182;6.284;2022-08-19T07:17:24;19.65;;;17.02;;
52158;SDS011;38145;53.182;6.284;2022-08-19T07:19:51;18.33;;;16.27;;
52158;SDS011;38145;53.182;6.284;2022-08-19T07:22:17;18.33;;;16.42;;
52158;SDS011;38145;53.182;6.284;2022-08-19T07:24:47;17.83;;;15.93;;
52158;SDS011;38145;53.182;6.284;2022-08-19T07:27:14;15.73;;;14.02;;
52158;SDS011;38145;53.182;6.284;2022-08-19T07:29:41;15.93;;;13.63;;
52158;SDS011;38145;53.182;6.284;2022-08-19T07:32:07;16.65;;;13.75;;
52158;SDS011;38145;53.182;6.284;2022-08-19T07:34:34;15.20;;;13.10;;
52158;SDS011;38145;53.182;6.284;2022-08-19T07:37:04;14.77;;;12.88;;
52158;SDS011;38145;53.182;6.284;2022-08-19T07:39:33;15.57;;;13.95;;
52158;SDS011;38145;53.182;6.284;2022-08-19T07:42:02;13.50;;;11.73;;
52158;SDS011;38145;53.182;6.284;2022-08-19T07:44:33;13.02;;;11.73;;
52158;SDS011;38145;53.182;6.284;2022-08-19T07:47:00;13.27;;;11.98;;
52158;SDS011;38145;53.182;6.284;2022-08-19T07:49:28;13.40;;;12.07;;
52158;SDS011;38145;53.182;6.284;2022-08-19T07:51:55;12.57;;;11.40;;
52158;SDS011;38145;53.182;6.284;2022-08-19T07:54:27;13.27;;;11.88;;
52158;SDS011;38145;53.182;6.284;2022-08-19T07:56:56;12.15;;;10.90;;
52158;SDS011;38145;53.182;6.284;2022-08-19T07:59:23;14.73;;;13.15;;
52158;SDS011;38145;53.182;6.284;2022-08-19T08:01:50;14.07;;;12.73;;
52158;SDS011;38145;53.182;6.284;2022-08-19T08:04:18;15.02;;;13.48;;
52158;SDS011;38145;53.182;6.284;2022-08-19T08:07:03;16.02;;;14.43;;
52158;SDS011;38145;53.182;6.284;2022-08-19T08:09:49;14.18;;;12.68;;
52158;SDS011;38145;53.182;6.284;2022-08-19T08:12:21;15.67;;;14.07;;
52158;SDS011;38145;53.182;6.284;2022-08-19T08:14:53;13.95;;;12.48;;
52158;SDS011;38145;53.182;6.284;2022-08-19T08:17:22;14.80;;;13.30;;
52158;SDS011;38145;53.182;6.284;2022-08-19T08:19:51;14.38;;;12.88;;
52158;SDS011;38145;53.182;6.284;2022-08-19T08:22:19;14.50;;;13.00;;
52158;SDS011;38145;53.182;6.284;2022-08-19T08:25:08;15.63;;;14.13;;
52158;SDS011;38145;53.182;6.284;2022-08-19T08:27:37;16.00;;;14.00;;
52158;SDS011;38145;53.182;6.284;2022-08-19T08:30:07;15.77;;;14.30;;
52158;SDS011;38145;53.182;6.284;2022-08-19T08:32:36;15.23;;;13.63;;
52158;SDS011;38145;53.182;6.284;2022-08-19T08:35:05;15.10;;;13.60;;
52158;SDS011;38145;53.182;6.284;2022-08-19T08:37:33;16.73;;;13.30;;
52158;SDS011;38145;53.182;6.284;2022-08-19T08:40:02;15.05;;;13.55;;
52158;SDS011;38145;53.182;6.284;2022-08-19T08:42:33;15.10;;;13.68;;
52158;SDS011;38145;53.182;6.284;2022-08-19T08:45:08;13.82;;;12.25;;
52158;SDS011;38145;53.182;6.284;2022-08-19T08:47:40;15.73;;;14.13;;
52158;SDS011;38145;53.182;6.284;2022-08-19T08:50:20;15.07;;;13.68;;
52158;SDS011;38145;53.182;6.284;2022-08-19T08:52:52;16.85;;;14.23;;
52158;SDS011;38145;53.182;6.284;2022-08-19T08:55:23;15.18;;;13.77;;
52158;SDS011;38145;53.182;6.284;2022-08-19T08:57:53;15.05;;;13.55;;
52158;SDS011;38145;53.182;6.284;2022-08-19T09:00:28;15.57;;;13.90;;
52158;SDS011;38145;53.182;6.284;2022-08-19T09:02:57;15.20;;;13.70;;
52158;SDS011;38145;53.182;6.284;2022-08-19T09:05:31;14.50;;;13.00;;
52158;SDS011;38145;53.182;6.284;2022-08-19T09:08:13;14.23;;;12.88;;
52158;SDS011;38145;53.182;6.284;2022-08-19T09:10:49;15.98;;;12.98;;
52158;SDS011;38145;53.182;6.284;2022-08-19T09:16:05;15.52;;;13.60;;
52158;SDS011;38145;53.182;6.284;2022-08-19T09:18:40;15.05;;;13.57;;
52158;SDS011;38145;53.182;6.284;2022-08-19T09:21:06;15.18;;;13.77;;
52158;SDS011;38145;53.182;6.284;2022-08-19T09:23:34;15.25;;;13.82;;
52158;SDS011;38145;53.182;6.284;2022-08-19T09:26:04;15.45;;;13.68;;
52158;SDS011;38145;53.182;6.284;2022-08-19T09:28:34;13.98;;;12.68;;
52158;SDS011;38145;53.182;6.284;2022-08-19T09:31:00;14.90;;;13.45;;
52158;SDS011;38145;53.182;6.284;2022-08-19T09:33:26;16.23;;;14.35;;
52158;SDS011;38145;53.182;6.284;2022-08-19T09:36:08;14.98;;;13.23;;
52158;SDS011;38145;53.182;6.284;2022-08-19T09:38:39;16.48;;;14.82;;
52158;SDS011;38145;53.182;6.284;2022-08-19T09:41:07;16.02;;;14.43;;
52158;SDS011;38145;53.182;6.284;2022-08-19T09:43:39;15.82;;;14.27;;
52158;SDS011;38145;53.182;6.284;2022-08-19T09:46:06;17.15;;;15.57;;
52158;SDS011;38145;53.182;6.284;2022-08-19T09:48:36;17.65;;;15.95;;
52158;SDS011;38145;53.182;6.284;2022-08-19T09:51:06;18.42;;;16.23;;
52158;SDS011;38145;53.182;6.284;2022-08-19T09:53:34;17.90;;;16.10;;
52158;SDS011;38145;53.182;6.284;2022-08-19T09:56:02;17.17;;;15.60;;
52158;SDS011;38145;53.182;6.284;2022-08-19T09:58:30;18.30;;;16.50;;
52158;SDS011;38145;53.182;6.284;2022-08-19T10:03:24;17.90;;;16.05;;
52158;SDS011;38145;53.182;6.284;2022-08-19T10:05:52;17.73;;;16.08;;
52158;SDS011;38145;53.182;6.284;2022-08-19T10:08:20;17.83;;;16.10;;
52158;SDS011;38145;53.182;6.284;2022-08-19T10:11:00;18.23;;;16.33;;
52158;SDS011;38145;53.182;6.284;2022-08-19T10:13:28;21.90;;;19.63;;
52158;SDS011;38145;53.182;6.284;2022-08-19T10:15:56;19.70;;;17.80;;
52158;SDS011;38145;53.182;6.284;2022-08-19T10:18:29;18.92;;;17.08;;
52158;SDS011;38145;53.182;6.284;2022-08-19T10:21:06;17.13;;;15.60;;
52158;SDS011;38145;53.182;6.284;2022-08-19T10:23:41;18.88;;;17.17;;
52158;SDS011;38145;53.182;6.284;2022-08-19T10:26:11;20.17;;;18.17;;
52158;SDS011;38145;53.182;6.284;2022-08-19T10:28:40;18.85;;;16.95;;
52158;SDS011;38145;53.182;6.284;2022-08-19T10:31:09;18.85;;;16.85;;
52158;SDS011;38145;53.182;6.284;2022-08-19T10:33:38;21.98;;;19.95;;
52158;SDS011;38145;53.182;6.284;2022-08-19T10:36:07;22.95;;;20.63;;
52158;SDS011;38145;53.182;6.284;2022-08-19T10:38:40;21.83;;;19.50;;
52158;SDS011;38145;53.182;6.284;2022-08-19T10:41:08;20.85;;;18.85;;
52158;SDS011;38145;53.182;6.284;2022-08-19T10:43:39;20.52;;;18.45;;
52158;SDS011;38145;53.182;6.284;2022-08-19T10:46:07;21.02;;;19.23;;
52158;SDS011;38145;53.182;6.284;2022-08-19T10:48:35;20.92;;;18.95;;
52158;SDS011;38145;53.182;6.284;2022-08-19T10:51:01;23.63;;;21.15;;
52158;SDS011;38145;53.182;6.284;2022-08-19T10:53:47;22.83;;;20.55;;
52158;SDS011;38145;53.182;6.284;2022-08-19T10:56:14;22.17;;;20.07;;
52158;SDS011;38145;53.182;6.284;2022-08-19T10:58:59;21.90;;;19.70;;
52158;SDS011;38145;53.182;6.284;2022-08-19T11:01:28;18.48;;;16.65;;
52158;SDS011;38145;53.182;6.284;2022-08-19T11:03:56;18.52;;;16.63;;
52158;SDS011;38145;53.182;6.284;2022-08-19T11:06:25;16.00;;;14.02;;
52158;SDS011;38145;53.182;6.284;2022-08-19T11:08:52;16.30;;;14.73;;
52158;SDS011;38145;53.182;6.284;2022-08-19T11:13:47;19.05;;;14.52;;
52158;SDS011;38145;53.182;6.284;2022-08-19T11:16:16;13.18;;;11.77;;
52158;SDS011;38145;53.182;6.284;2022-08-19T11:18:47;13.15;;;11.35;;
52158;SDS011;38145;53.182;6.284;2022-08-19T11:21:17;13.82;;;12.45;;
52158;SDS011;38145;53.182;6.284;2022-08-19T11:23:47;14.27;;;12.90;;
52158;SDS011;38145;53.182;6.284;2022-08-19T11:26:15;15.95;;;13.50;;
52158;SDS011;38145;53.182;6.284;2022-08-19T11:28:42;17.17;;;15.33;;
52158;SDS011;38145;53.182;6.284;2022-08-19T11:31:09;18.65;;;15.80;;
52158;SDS011;38145;53.182;6.284;2022-08-19T11:33:37;17.98;;;16.08;;
52158;SDS011;38145;53.182;6.284;2022-08-19T11:36:03;17.35;;;15.32;;
52158;SDS011;38145;53.182;6.284;2022-08-19T11:38:30;15.93;;;14.23;;
52158;SDS011;38145;53.182;6.284;2022-08-19T11:40:58;20.75;;;15.98;;
52158;SDS011;38145;53.182;6.284;2022-08-19T11:43:26;15.75;;;14.15;;
52158;SDS011;38145;53.182;6.284;2022-08-19T11:45:54;14.98;;;13.43;;
52158;SDS011;38145;53.182;6.284;2022-08-19T11:48:21;15.38;;;13.95;;
52158;SDS011;38145;53.182;6.284;2022-08-19T11:50:49;16.90;;;14.77;;
52158;SDS011;38145;53.182;6.284;2022-08-19T11:53:17;17.73;;;15.93;;
52158;SDS011;38145;53.182;6.284;2022-08-19T11:55:47;17.42;;;15.55;;
52158;SDS011;38145;53.182;6.284;2022-08-19T11:58:15;17.75;;;15.20;;
52158;SDS011;38145;53.182;6.284;2022-08-19T12:00:43;16.92;;;15.13;;
52158;SDS011;38145;53.182;6.284;2022-08-19T12:03:10;16.23;;;14.52;;
52158;SDS011;38145;53.182;6.284;2022-08-19T12:05:38;16.83;;;14.77;;
52158;SDS011;38145;53.182;6.284;2022-08-19T12:08:06;18.73;;;14.73;;
52158;SDS011;38145;53.182;6.284;2022-08-19T12:10:33;18.83;;;15.05;;
52158;SDS011;38145;53.182;6.284;2022-08-19T12:12:59;16.85;;;15.05;;
52158;SDS011;38145;53.182;6.284;2022-08-19T12:15:26;16.52;;;14.32;;
52158;SDS011;38145;53.182;6.284;2022-08-19T12:17:54;12.40;;;10.95;;
52158;SDS011;38145;53.182;6.284;2022-08-19T12:20:22;14.43;;;12.10;;
52158;SDS011;38145;53.182;6.284;2022-08-19T12:22:50;16.90;;;12.57;;
52158;SDS011;38145;53.182;6.284;2022-08-19T12:25:16;13.85;;;11.52;;
52158;SDS011;38145;53.182;6.284;2022-08-19T12:27:43;14.07;;;11.38;;
52158;SDS011;38145;53.182;6.284;2022-08-19T12:30:11;18.35;;;12.82;;
52158;SDS011;38145;53.182;6.284;2022-08-19T12:32:38;15.50;;;13.90;;
52158;SDS011;38145;53.182;6.284;2022-08-19T12:35:06;15.53;;;13.93;;
52158;SDS011;38145;53.182;6.284;2022-08-19T12:37:34;18.15;;;16.23;;
52158;SDS011;38145;53.182;6.284;2022-08-19T12:40:00;19.27;;;15.70;;
52158;SDS011;38145;53.182;6.284;2022-08-19T12:42:28;17.60;;;15.77;;
52158;SDS011;38145;53.182;6.284;2022-08-19T12:44:55;23.35;;;15.43;;
52158;SDS011;38145;53.182;6.284;2022-08-19T12:47:21;18.63;;;15.52;;
52158;SDS011;38145;53.182;6.284;2022-08-19T12:49:48;16.02;;;12.68;;
52158;SDS011;38145;53.182;6.284;2022-08-19T12:52:15;25.20;;;11.60;;
52158;SDS011;38145;53.182;6.284;2022-08-19T12:54:41;14.10;;;10.45;;
52158;SDS011;38145;53.182;6.284;2022-08-19T12:57:09;13.23;;;8.65;;
52158;SDS011;38145;53.182;6.284;2022-08-19T12:59:36;17.27;;;8.45;;
52158;SDS011;38145;53.182;6.284;2022-08-19T13:04:31;11.57;;;10.48;;
52158;SDS011;38145;53.182;6.284;2022-08-19T13:07:01;14.55;;;10.30;;
52158;SDS011;38145;53.182;6.284;2022-08-19T13:09:28;14.25;;;11.05;;
52158;SDS011;38145;53.182;6.284;2022-08-19T13:11:54;11.88;;;10.68;;
52158;SDS011;38145;53.182;6.284;2022-08-19T13:14:22;12.52;;;11.18;;
52158;SDS011;38145;53.182;6.284;2022-08-19T13:16:48;14.95;;;11.18;;
52158;SDS011;38145;53.182;6.284;2022-08-19T13:19:14;16.42;;;13.77;;
52158;SDS011;38145;53.182;6.284;2022-08-19T13:21:41;14.10;;;12.57;;
52158;SDS011;38145;53.182;6.284;2022-08-19T13:24:07;18.75;;;13.90;;
52158;SDS011;38145;53.182;6.284;2022-08-19T13:26:33;17.08;;;15.10;;
52158;SDS011;38145;53.182;6.284;2022-08-19T13:29:00;19.60;;;16.73;;
52158;SDS011;38145;53.182;6.284;2022-08-19T13:31:59;18.15;;;16.35;;
52158;SDS011;38145;53.182;6.284;2022-08-19T13:34:44;22.08;;;17.85;;
52158;SDS011;38145;53.182;6.284;2022-08-19T13:39:38;22.55;;;20.15;;
52158;SDS011;38145;53.182;6.284;2022-08-19T13:42:04;23.70;;;19.35;;
52158;SDS011;38145;53.182;6.284;2022-08-19T13:44:32;25.88;;;21.52;;
52158;SDS011;38145;53.182;6.284;2022-08-19T13:47:01;25.77;;;19.75;;
52158;SDS011;38145;53.182;6.284;2022-08-19T13:49:33;23.23;;;19.05;;
52158;SDS011;38145;53.182;6.284;2022-08-19T13:52:02;19.50;;;15.80;;
52158;SDS011;38145;53.182;6.284;2022-08-19T13:54:30;20.95;;;16.52;;
52158;SDS011;38145;53.182;6.284;2022-08-19T13:56:56;18.85;;;15.60;;
52158;SDS011;38145;53.182;6.284;2022-08-19T13:59:22;17.13;;;15.40;;
52158;SDS011;38145;53.182;6.284;2022-08-19T14:01:49;17.42;;;15.23;;
52158;SDS011;38145;53.182;6.284;2022-08-19T14:04:15;17.10;;;15.07;;
52158;SDS011;38145;53.182;6.284;2022-08-19T14:06:41;21.05;;;16.13;;
52158;SDS011;38145;53.182;6.284;2022-08-19T14:09:07;21.13;;;16.92;;
52158;SDS011;38145;53.182;6.284;2022-08-19T14:11:34;20.73;;;16.65;;
52158;SDS011;38145;53.182;6.284;2022-08-19T14:14:00;19.75;;;17.33;;
52158;SDS011;38145;53.182;6.284;2022-08-19T14:16:26;22.27;;;16.77;;
52158;SDS011;38145;53.182;6.284;2022-08-19T14:18:52;26.10;;;18.63;;
52158;SDS011;38145;53.182;6.284;2022-08-19T14:21:19;22.65;;;20.00;;
52158;SDS011;38145;53.182;6.284;2022-08-19T14:23:48;21.52;;;19.15;;
52158;SDS011;38145;53.182;6.284;2022-08-19T14:26:16;27.50;;;20.58;;
52158;SDS011;38145;53.182;6.284;2022-08-19T14:28:44;24.65;;;19.60;;
52158;SDS011;38145;53.182;6.284;2022-08-19T14:31:11;19.50;;;14.80;;
52158;SDS011;38145;53.182;6.284;2022-08-19T14:33:41;17.17;;;13.55;;
52158;SDS011;38145;53.182;6.284;2022-08-19T14:36:08;15.05;;;13.05;;
52158;SDS011;38145;53.182;6.284;2022-08-19T14:38:35;17.98;;;13.20;;
52158;SDS011;38145;53.182;6.284;2022-08-19T14:41:07;15.50;;;12.68;;
52158;SDS011;38145;53.182;6.284;2022-08-19T14:43:37;17.10;;;13.80;;
52158;SDS011;38145;53.182;6.284;2022-08-19T14:46:04;18.00;;;12.60;;
52158;SDS011;38145;53.182;6.284;2022-08-19T14:48:31;13.77;;;12.23;;
52158;SDS011;38145;53.182;6.284;2022-08-19T14:50:57;14.82;;;12.45;;
52158;SDS011;38145;53.182;6.284;2022-08-19T14:53:23;15.02;;;12.10;;
52158;SDS011;38145;53.182;6.284;2022-08-19T14:55:51;13.43;;;10.90;;
52158;SDS011;38145;53.182;6.284;2022-08-19T14:58:17;13.75;;;12.32;;
52158;SDS011;38145;53.182;6.284;2022-08-19T15:00:43;13.07;;;11.65;;
52158;SDS011;38145;53.182;6.284;2022-08-19T15:03:09;16.15;;;12.38;;
52158;SDS011;38145;53.182;6.284;2022-08-19T15:05:36;14.82;;;11.88;;
52158;SDS011;38145;53.182;6.284;2022-08-19T15:08:03;14.20;;;11.48;;
52158;SDS011;38145;53.182;6.284;2022-08-19T15:10:30;18.92;;;14.35;;